Time;durP1;ratioP1;P1;durP2;ratioP2;P2;SDS_P1;SDS_P2;PMS_P1;PMS_P2;Temp;Humidity;BMP_temperature;BMP_pressure;BME280_temperature;BME280_humidity;BME280_pressure;Samples;Min_cycle;Max_cycle;Signal;HPM_P1;HPM_P2
2023/12/31 00:04:43;;;;;;;3.75;0.90;;;;;;;6.99;74.02;100793.94;15716746;28;20066;-48
2023/12/31 00:12:18;;;;;;;0.20;0.20;;;;;;;7.19;73.02;100785.38;15726725;28;20048;-50
2023/12/31 00:19:52;;;;;;;0.10;0.10;;;;;;;6.75;73.43;100743.56;15714540;28;20044;-47
2023/12/31 00:27:27;;;;;;;0.77;0.70;;;;;;;7.11;72.66;100776.47;15739333;28;20044;-47
2023/12/31 00:35:01;;;;;;;0.15;0.15;;;;;;;7.40;71.42;100758.72;15725253;28;20147;-51
2023/12/31 00:42:37;;;;;;;0.13;0.13;;;;;;;7.03;72.19;100765.06;15731134;22;20028;-52
2023/12/31 00:50:10;;;;;;;0.00;0.00;;;;;;;7.05;71.50;100745.19;15697428;28;20041;-53
2023/12/31 00:57:45;;;;;;;0.00;0.00;;;;;;;6.96;70.58;100745.47;15678021;28;20580;-53
2023/12/31 01:05:20;;;;;;;0.00;0.00;;;;;;;6.61;72.01;100750.56;15662325;28;20471;-51
2023/12/31 01:12:55;;;;;;;;;;;;;;;6.37;70.68;100701.81;15645411;28;20063;-51
2023/12/31 01:20:28;;;;;;;0.00;0.00;;;;;;;6.11;73.66;100741.44;15660871;28;20305;-51
2023/12/31 01:28:04;;;;;;;0.00;0.00;;;;;;;6.00;74.05;100744.50;15660230;28;20421;-51
2023/12/31 01:35:41;;;;;;;0.00;0.00;;;;;;;5.69;75.30;100737.41;15654323;28;20052;-50
2023/12/31 01:43:19;;;;;;;0.05;0.05;;;;;;;5.59;75.63;100739.47;15653935;28;20041;-49
2023/12/31 01:50:52;;;;;;;0.00;0.00;;;;;;;5.48;75.85;100729.25;15639556;28;20040;-49
2023/12/31 01:58:27;;;;;;;;;;;;;;;5.06;77.54;100718.03;15657121;28;20039;-50
2023/12/31 02:06:01;;;;;;;0.00;0.00;;;;;;;4.72;78.88;100713.03;15655530;28;20421;-51
2023/12/31 02:13:36;;;;;;;0.00;0.00;;;;;;;4.86;78.27;100707.00;15654997;28;20478;-51
2023/12/31 02:21:12;;;;;;;0.20;0.20;;;;;;;4.98;77.62;100699.44;15656390;28;20356;-53
2023/12/31 02:28:47;;;;;;;0.05;0.05;;;;;;;5.10;77.46;100684.75;15653696;28;20039;-52
2023/12/31 02:36:22;;;;;;;0.00;0.00;;;;;;;5.39;75.94;100683.22;15656300;28;20045;-51
2023/12/31 02:43:57;;;;;;;0.32;0.32;;;;;;;5.00;77.26;100692.13;15673730;28;20045;-51
2023/12/31 02:51:30;;;;;;;0.00;0.00;;;;;;;4.74;78.63;100678.28;15652775;28;20059;-50
2023/12/31 02:59:05;;;;;;;;;;;;;;;4.56;80.03;100667.91;15636379;28;20051;-51
2023/12/31 03:06:39;;;;;;;0.10;0.10;;;;;;;4.28;81.76;100652.41;15644841;28;19921;-51
2023/12/31 03:14:15;;;;;;;9.98;0.57;;;;;;;4.00;81.99;100608.66;15684050;28;20048;-52
2023/12/31 03:21:49;;;;;;;0.00;0.00;;;;;;;4.34;82.21;100632.31;15680754;28;20382;-51
2023/12/31 03:29:24;;;;;;;;;;;;;;;4.24;82.62;100629.00;15665708;28;20110;-52
2023/12/31 03:36:58;;;;;;;0.00;0.00;;;;;;;4.23;82.13;100611.41;15661272;28;19921;-52
2023/12/31 03:44:34;;;;;;;0.00;0.00;;;;;;;4.08;82.84;100608.66;15678880;28;20040;-50
2023/12/31 03:52:08;;;;;;;0.10;0.10;;;;;;;4.17;82.57;100609.44;15647677;28;20037;-52
2023/12/31 03:59:49;;;;;;;0.20;0.20;;;;;;;4.14;82.38;100599.16;15664585;28;20398;-51
2023/12/31 04:07:22;;;;;;;0.32;0.32;;;;;;;4.19;82.00;100588.84;15660778;28;20052;-51
2023/12/31 04:14:58;;;;;;;0.00;0.00;;;;;;;4.24;81.93;100591.81;15654556;28;20132;-49
2023/12/31 04:22:32;;;;;;;32.85;1.20;;;;;;;4.65;80.68;100573.81;15657939;28;20048;-51
2023/12/31 04:30:07;;;;;;;0.00;0.00;;;;;;;4.69;79.58;100563.69;15661654;28;20045;-47
2023/12/31 04:37:44;;;;;;;0.05;0.05;;;;;;;4.64;80.73;100545.59;15670641;28;20162;-50
2023/12/31 04:45:19;;;;;;;0.10;0.10;;;;;;;4.77;80.17;100547.66;15661633;28;20049;-48
2023/12/31 04:52:53;;;;;;;0.10;0.10;;;;;;;5.04;79.79;100528.50;15661073;28;20041;-47
2023/12/31 05:00:28;;;;;;;;;;;;;;;5.59;77.99;100524.63;15678974;28;20110;-52
2023/12/31 05:08:01;;;;;;;0.00;0.00;;;;;;;5.57;77.39;100513.34;15644235;28;19921;-48
2023/12/31 05:15:36;;;;;;;0.00;0.00;;;;;;;5.48;77.63;100519.78;15660565;28;20317;-47
2023/12/31 05:23:09;;;;;;;0.00;0.00;;;;;;;5.40;77.90;100503.88;15659644;28;20032;-50
2023/12/31 05:30:44;;;;;;;0.05;0.05;;;;;;;5.31;78.39;100505.78;15672123;28;20505;-48
2023/12/31 05:38:20;;;;;;;0.00;0.00;;;;;;;5.28;78.37;100490.22;15671872;28;20052;-47
2023/12/31 05:45:55;;;;;;;0.00;0.00;;;;;;;5.46;77.30;100465.09;15658966;28;20068;-52
2023/12/31 05:53:28;;;;;;;0.22;0.20;;;;;;;5.41;77.79;100462.97;15655441;28;20056;-50
2023/12/31 06:01:04;;;;;;;0.00;0.00;;;;;;;5.82;76.70;100471.28;15652472;28;20128;-50
2023/12/31 06:08:41;;;;;;;0.00;0.00;;;;;;;5.98;75.83;100472.13;15657500;28;20064;-54
2023/12/31 06:16:17;;;;;;;0.10;0.10;;;;;;;5.40;78.31;100471.13;15675006;28;20056;-54
2023/12/31 06:23:51;;;;;;;0.00;0.00;;;;;;;5.36;78.38;100465.31;15657254;28;20049;-50
2023/12/31 06:31:26;;;;;;;6.45;2.40;;;;;;;5.25;78.70;100469.28;15675346;28;20069;-51
2023/12/31 06:38:59;;;;;;;0.10;0.10;;;;;;;5.06;79.37;100465.31;15681437;22;20047;-49
2023/12/31 06:46:34;;;;;;;0.52;0.32;;;;;;;5.19;78.96;100450.56;15744113;28;20049;-51
2023/12/31 06:54:07;;;;;;;0.00;0.00;;;;;;;5.24;78.92;100448.19;15741068;28;20060;-49
2023/12/31 07:01:42;;;;;;;0.00;0.00;;;;;;;5.24;79.29;100442.84;15726517;28;20044;-49
2023/12/31 07:09:15;;;;;;;0.00;0.00;;;;;;;5.31;78.46;100433.13;15744303;28;20394;-47
2023/12/31 07:16:50;;;;;;;0.00;0.00;;;;;;;5.48;78.01;100421.28;15736697;28;20040;-52
2023/12/31 07:24:23;;;;;;;0.38;0.38;;;;;;;5.40;77.80;100418.72;15736860;28;20044;-50
2023/12/31 07:31:58;;;;;;;;;;;;;;;5.20;78.79;100412.28;15729135;28;20089;-49
2023/12/31 07:39:32;;;;;;;0.05;0.05;;;;;;;5.50;77.34;100415.75;15733884;28;19920;-48
2023/12/31 07:47:07;;;;;;;0.00;0.00;;;;;;;5.36;77.78;100404.97;15705954;28;20064;-49
2023/12/31 07:54:40;;;;;;;0.00;0.00;;;;;;;5.49;77.35;100398.16;15742617;28;20055;-47
2023/12/31 08:02:18;;;;;;;0.20;0.20;;;;;;;5.47;77.25;100397.53;15742635;28;20122;-47
2023/12/31 08:09:53;;;;;;;0.20;0.20;;;;;;;5.71;76.80;100386.53;15738309;28;20452;-50
2023/12/31 08:17:30;;;;;;;0.10;0.10;;;;;;;5.72;76.59;100382.88;15717439;28;20060;-47
2023/12/31 08:25:05;;;;;;;0.00;0.00;;;;;;;6.33;74.32;100387.81;15737422;28;20048;-47
2023/12/31 08:32:40;;;;;;;0.00;0.00;;;;;;;6.45;73.11;100374.81;15734396;28;20397;-48
2023/12/31 08:40:14;;;;;;;0.00;0.00;;;;;;;6.63;72.27;100383.19;15735720;28;20045;-48
2023/12/31 08:47:52;;;;;;;0.00;0.00;;;;;;;6.64;72.08;100374.16;15731898;28;20048;-48
2023/12/31 08:55:25;;;;;;;0.20;0.20;;;;;;;7.01;71.12;100382.84;15726910;28;20051;-49
2023/12/31 09:03:00;;;;;;;0.00;0.00;;;;;;;6.81;71.56;100380.84;15730496;28;20037;-50
2023/12/31 09:10:34;;;;;;;0.00;0.00;;;;;;;7.44;69.41;100372.78;15722286;28;20156;-51
2023/12/31 09:18:10;;;;;;;0.55;0.55;;;;;;;7.18;69.58;100360.16;15728339;28;20045;-47
2023/12/31 09:25:47;;;;;;;0.10;0.10;;;;;;;7.06;70.15;100372.38;15739579;28;20549;-48
2023/12/31 09:33:22;;;;;;;0.65;0.60;;;;;;;7.29;69.84;100364.91;15731120;28;20067;-49
2023/12/31 09:40:55;;;;;;;0.00;0.00;;;;;;;7.26;69.79;100343.94;15736742;28;20123;-51
2023/12/31 09:48:32;;;;;;;0.00;0.00;;;;;;;7.15;70.25;100333.84;15729975;28;20493;-48
2023/12/31 09:56:06;;;;;;;0.10;0.10;;;;;;;7.11;69.87;100313.91;15720793;28;20055;-50
2023/12/31 10:03:44;;;;;;;0.00;0.00;;;;;;;6.84;71.43;100295.09;15737672;28;20048;-51
2023/12/31 10:11:18;;;;;;;3.83;0.98;;;;;;;7.15;70.52;100275.13;15719775;28;20047;-48
2023/12/31 10:18:55;;;;;;;0.00;0.00;;;;;;;7.21;70.37;100254.81;15738057;28;20418;-50
2023/12/31 10:26:29;;;;;;;0.63;0.63;;;;;;;7.29;70.54;100238.63;15736785;28;20056;-49
2023/12/31 10:34:25;;;;;;;0.40;0.38;;;;;;;7.32;70.83;100211.50;15719579;28;20039;-48
2023/12/31 10:42:00;;;;;;;0.98;0.55;;;;;;;7.61;69.96;100189.81;15732822;28;20109;-52
2023/12/31 10:49:36;;;;;;;0.55;0.38;;;;;;;7.88;68.34;100179.09;15733722;28;20044;-50
2023/12/31 10:57:10;;;;;;;0.20;0.20;;;;;;;8.23;67.64;100176.19;15735170;28;20060;-49
2023/12/31 11:04:46;;;;;;;0.40;0.35;;;;;;;8.12;67.90;100154.44;15734579;28;20067;-52
2023/12/31 11:12:21;;;;;;;0.00;0.00;;;;;;;8.08;67.71;100141.69;15735386;28;20057;-50
2023/12/31 11:20:21;;;;;;;0.35;0.35;;;;;;;8.23;66.97;100166.31;15723635;28;20071;-50
2023/12/31 11:27:55;;;;;;;0.00;0.00;;;;;;;8.36;66.96;100162.81;15717346;28;20073;-50
2023/12/31 11:35:43;;;;;;;0.00;0.00;;;;;;;8.49;66.85;100145.94;15746947;28;20101;-50
2023/12/31 11:43:19;;;;;;;0.10;0.10;;;;;;;8.14;66.98;100132.81;15743020;28;20045;-54
2023/12/31 11:50:56;;;;;;;0.05;0.05;;;;;;;8.41;66.58;100107.69;15743406;28;20043;-51
2023/12/31 11:58:30;;;;;;;0.00;0.00;;;;;;;8.64;65.63;100079.63;15721816;28;20094;-49
2023/12/31 12:06:05;;;;;;;0.00;0.00;;;;;;;8.84;65.33;100061.56;15727822;28;20047;-49
2023/12/31 12:13:38;;;;;;;0.00;0.00;;;;;;;8.59;66.66;100058.84;15708540;28;20526;-48
2023/12/31 12:21:13;;;;;;;0.43;0.43;;;;;;;8.66;66.57;100040.88;15745786;28;20036;-50
2023/12/31 12:28:47;;;;;;;0.00;0.00;;;;;;;8.69;66.32;100028.97;15745592;28;20044;-51
2023/12/31 12:36:22;;;;;;;0.10;0.10;;;;;;;8.56;66.88;100016.47;15738684;28;20055;-50
2023/12/31 12:43:57;;;;;;;0.10;0.10;;;;;;;8.52;67.25;100015.25;15738077;28;20044;-52
2023/12/31 12:51:34;;;;;;;0.00;0.00;;;;;;;8.12;69.01;99991.38;15722260;28;20458;-51
2023/12/31 12:59:08;;;;;;;0.00;0.00;;;;;;;8.32;68.19;99999.28;15741069;28;20033;-51
2023/12/31 13:06:42;;;;;;;0.60;0.60;;;;;;;7.97;69.75;99984.63;15720683;28;20044;-52
2023/12/31 13:14:17;;;;;;;0.25;0.22;;;;;;;8.15;68.86;99971.41;15738634;28;20045;-50
2023/12/31 13:21:52;;;;;;;0.10;0.10;;;;;;;8.00;68.86;99938.78;15699959;28;20050;-49
2023/12/31 13:29:25;;;;;;;0.10;0.05;;;;;;;8.10;68.84;99926.59;15706031;28;20047;-52
2023/12/31 13:37:00;;;;;;;;;;;;;;;8.11;69.27;99936.28;15725195;28;20067;-48
2023/12/31 13:44:37;;;;;;;0.00;0.00;;;;;;;8.09;69.31;99927.66;15714531;28;19966;-53
2023/12/31 13:52:12;;;;;;;0.10;0.10;;;;;;;7.86;69.92;99919.34;15736149;28;20136;-50
2023/12/31 13:59:45;;;;;;;0.00;0.00;;;;;;;8.43;68.79;99905.03;15736120;28;20400;-48
2023/12/31 14:07:20;;;;;;;2.80;0.90;;;;;;;8.00;70.27;99906.72;15733560;28;20123;-51
2023/12/31 14:14:53;;;;;;;0.15;0.03;;;;;;;8.36;68.78;99906.09;15736533;28;20719;-48
2023/12/31 14:22:29;;;;;;;0.45;0.45;;;;;;;7.98;69.76;99888.25;15728938;28;20066;-48
2023/12/31 14:30:03;;;;;;;0.00;0.00;;;;;;;7.63;70.43;99903.81;15734616;28;20127;-49
2023/12/31 14:37:38;;;;;;;0.00;0.00;;;;;;;7.57;70.62;99896.66;15691283;28;1086568;-49
2023/12/31 14:45:12;;;;;;;0.90;0.52;;;;;;;7.60;70.81;99883.72;15735026;28;20463;-52
2023/12/31 14:52:46;;;;;;;0.10;0.10;;;;;;;7.53;70.74;99887.41;15721209;28;20104;-51
2023/12/31 15:00:22;;;;;;;0.63;0.52;;;;;;;7.28;71.63;99889.97;15704809;28;20055;-54
2023/12/31 15:08:02;;;;;;;0.00;0.00;;;;;;;7.53;70.65;99884.75;15749150;28;20040;-51
2023/12/31 15:15:41;;;;;;;0.00;0.00;;;;;;;7.73;69.55;99869.44;15745724;28;20106;-49
2023/12/31 15:23:16;;;;;;;0.00;0.00;;;;;;;7.25;73.14;99842.34;15727540;28;20045;-52
2023/12/31 15:30:52;;;;;;;0.13;0.13;;;;;;;7.16;73.46;99847.91;15740228;28;20049;-49
2023/12/31 15:38:27;;;;;;;0.00;0.00;;;;;;;7.19;74.28;99852.00;15739384;28;20062;-54
2023/12/31 15:46:05;;;;;;;0.10;0.10;;;;;;;7.14;73.23;99844.63;15744804;28;20390;-54
2023/12/31 15:53:40;;;;;;;0.00;0.00;;;;;;;7.23;73.12;99860.41;15746733;28;20126;-49
2023/12/31 16:01:14;;;;;;;0.30;0.30;;;;;;;7.33;71.97;99845.59;15740474;28;20052;-52
2023/12/31 16:08:48;;;;;;;2.13;1.67;;;;;;;7.65;71.13;99857.19;15729488;28;20041;-54
2023/12/31 16:16:22;;;;;;;0.00;0.00;;;;;;;7.49;71.09;99854.97;15741304;28;20471;-54
2023/12/31 16:23:58;;;;;;;0.00;0.00;;;;;;;7.69;70.58;99838.84;15745332;28;20071;-52
2023/12/31 16:31:31;;;;;;;0.00;0.00;;;;;;;7.49;70.78;99843.47;15744792;28;20052;-49
2023/12/31 16:39:05;;;;;;;0.32;0.32;;;;;;;7.66;70.90;99852.66;15708818;28;20139;-52
2023/12/31 16:46:43;;;;;;;0.00;0.00;;;;;;;7.62;70.17;99846.91;15740862;28;20046;-52
2023/12/31 16:54:18;;;;;;;0.00;0.00;;;;;;;7.89;69.50;99842.25;15731046;28;20556;-55
2023/12/31 17:01:52;;;;;;;0.52;0.20;;;;;;;7.61;70.11;99844.47;15743841;28;20037;-53
2023/12/31 17:09:26;;;;;;;1.65;0.55;;;;;;;7.86;69.14;99840.00;15737611;28;20048;-51
2023/12/31 17:17:00;;;;;;;0.43;0.35;;;;;;;7.86;69.67;99844.53;15720403;28;20067;-50
2023/12/31 17:24:34;;;;;;;0.20;0.20;;;;;;;7.96;69.07;99828.84;15741034;28;20068;-51
2023/12/31 17:32:08;;;;;;;0.32;0.25;;;;;;;7.57;70.06;99830.72;15715771;28;20064;-52
2023/12/31 17:39:43;;;;;;;0.28;0.28;;;;;;;7.74;69.67;99833.72;15740573;28;20090;-51
2023/12/31 17:47:20;;;;;;;5.22;3.35;;;;;;;7.86;69.24;99828.50;15737063;28;20542;-51
2023/12/31 17:54:55;;;;;;;2.10;1.55;;;;;;;7.87;69.08;99833.63;15739485;28;20040;-54
2023/12/31 18:02:29;;;;;;;0.15;0.15;;;;;;;7.55;70.64;99831.94;15678306;28;20050;-56
2023/12/31 18:10:07;;;;;;;0.00;0.00;;;;;;;7.02;74.27;99862.31;15699162;28;20059;-56
2023/12/31 18:17:40;;;;;;;0.80;0.40;;;;;;;6.86;76.20;99871.56;15704553;28;20080;-56
2023/12/31 18:25:15;;;;;;;5.40;4.25;;;;;;;7.09;75.95;99876.47;15687520;28;20048;-50
2023/12/31 18:32:48;;;;;;;1.45;0.95;;;;;;;7.42;74.26;99862.19;15700925;28;20084;-50
2023/12/31 18:40:23;;;;;;;1.67;0.82;;;;;;;7.10;74.53;99858.59;15692379;28;20051;-47
2023/12/31 18:47:56;;;;;;;0.82;0.82;;;;;;;7.14;74.15;99854.50;15724899;28;20079;-48
2023/12/31 18:55:32;;;;;;;1.17;0.65;;;;;;;7.14;73.55;99865.16;15699448;28;20040;-51
2023/12/31 19:03:06;;;;;;;3.17;1.10;;;;;;;7.22;73.74;99864.09;15713945;28;20029;-50
2023/12/31 19:10:41;;;;;;;0.32;0.32;;;;;;;7.19;73.82;99862.69;15691427;28;20396;-48
2023/12/31 19:18:16;;;;;;;0.20;0.20;;;;;;;7.49;72.34;99870.19;15717475;28;20524;-46
2023/12/31 19:25:51;;;;;;;0.00;0.00;;;;;;;7.44;71.73;99868.13;15712461;28;20041;-51
2023/12/31 19:33:25;;;;;;;0.00;0.00;;;;;;;7.65;71.61;99875.88;15725508;28;20478;-51
2023/12/31 19:41:00;;;;;;;0.10;0.10;;;;;;;7.51;70.99;99873.47;15700568;28;20040;-49
2023/12/31 19:48:33;;;;;;;0.73;0.63;;;;;;;7.06;72.07;99876.06;15712948;28;20049;-50
2023/12/31 19:56:09;;;;;;;0.52;0.52;;;;;;;7.04;72.03;99886.94;15701928;28;20041;-47
2023/12/31 20:03:44;;;;;;;1.35;0.98;;;;;;;6.78;72.99;99890.44;15727278;28;20459;-46
2023/12/31 20:11:19;;;;;;;0.40;0.40;;;;;;;6.87;72.36;99899.06;15742444;28;20044;-48
2023/12/31 20:18:53;;;;;;;0.22;0.22;;;;;;;6.95;71.74;99919.34;15742803;28;20089;-49
2023/12/31 20:26:29;;;;;;;0.40;0.40;;;;;;;6.81;72.64;99924.72;15725058;28;20045;-47
2023/12/31 20:34:02;;;;;;;0.10;0.10;;;;;;;6.90;71.85;99931.50;15727325;28;20742;-51
2023/12/31 20:41:37;;;;;;;0.35;0.35;;;;;;;6.86;71.97;99967.59;15691387;28;20043;-48
2023/12/31 20:49:12;;;;;;;0.13;0.13;;;;;;;6.46;72.98;99956.06;15725750;28;20044;-49
2023/12/31 20:56:46;;;;;;;;;;;;;;;6.74;72.35;99960.41;15715365;28;20125;-48
2023/12/31 21:04:23;;;;;;;0.47;0.40;;;;;;;6.41;72.91;99961.19;15695415;28;19930;-50
2023/12/31 21:11:58;;;;;;;0.25;0.25;;;;;;;6.24;74.04;99976.72;15712237;28;20410;-50
2023/12/31 21:19:32;;;;;;;0.05;0.05;;;;;;;6.61;72.16;99975.38;15711216;28;20075;-48
2023/12/31 21:27:07;;;;;;;0.73;0.73;;;;;;;6.36;73.33;99985.78;15737525;28;20128;-50
2023/12/31 21:34:40;;;;;;;1.83;1.48;;;;;;;6.46;72.50;99985.41;15739823;28;20064;-50
2023/12/31 21:42:15;;;;;;;4.65;1.85;;;;;;;6.44;72.49;99966.13;15740689;28;20109;-50
2023/12/31 21:49:49;;;;;;;0.47;0.45;;;;;;;6.59;72.74;99969.44;15725739;28;20111;-50
2023/12/31 21:57:23;;;;;;;0.10;0.10;;;;;;;6.61;72.62;99970.03;15676474;28;20049;-50
2023/12/31 22:04:57;;;;;;;0.00;0.00;;;;;;;6.41;73.41;99960.38;15694386;28;20160;-49
2023/12/31 22:12:32;;;;;;;0.20;0.20;;;;;;;6.42;73.58;99989.47;15738451;28;20501;-51
2023/12/31 22:20:06;;;;;;;0.15;0.15;;;;;;;6.38;73.48;99973.06;15720563;28;20402;-46
2023/12/31 22:27:42;;;;;;;0.30;0.30;;;;;;;6.28;73.46;99975.28;15676099;28;20044;-48
2023/12/31 22:35:16;;;;;;;0.00;0.00;;;;;;;6.44;73.39;99987.44;15675739;28;20051;-50
2023/12/31 22:42:51;;;;;;;0.13;0.13;;;;;;;6.47;73.11;99972.88;15722818;28;20112;-48
2023/12/31 22:50:25;;;;;;;0.00;0.00;;;;;;;6.39;73.09;99968.59;15747522;28;20500;-48
2023/12/31 22:58:01;;;;;;;0.20;0.20;;;;;;;6.43;73.30;99976.97;15729472;28;20602;-48
2023/12/31 23:05:34;;;;;;;0.52;0.52;;;;;;;6.67;72.17;99980.91;15732185;28;20051;-46
2023/12/31 23:13:13;;;;;;;3.97;3.63;;;;;;;6.36;73.38;99991.13;15721949;28;20486;-50
2023/12/31 23:20:47;;;;;;;9.63;8.13;;;;;;;6.31;73.42;99988.22;15724130;28;20037;-45
2023/12/31 23:28:21;;;;;;;18.52;9.20;;;;;;;6.43;72.84;99993.78;15741036;28;20110;-49
2023/12/31 23:35:55;;;;;;;8.43;6.85;;;;;;;6.33;73.42;99991.50;15739113;28;20040;-47
2023/12/31 23:43:29;;;;;;;12.52;7.03;;;;;;;5.97;74.59;99996.28;15723602;28;20074;-48
2023/12/31 23:51:03;;;;;;;14.32;8.35;;;;;;;6.12;74.00;99999.66;15718029;28;20559;-47
2023/12/31 23:58:38;;;;;;;7.72;5.97;;;;;;;6.14;73.97;100000.25;15744396;28;20073;-47
